Time;durP1;ratioP1;P1;durP2;ratioP2;P2;SDS_P1;SDS_P2;PMS_P1;PMS_P2;Temp;Humidity;BMP_temperature;BMP_pressure;BME280_temperature;BME280_humidity;BME280_pressure;Samples;Min_cycle;Max_cycle;Signal;HPM_P1;HPM_P2
2022/04/13 00:01:36;;;;;;;1.12;0.57;;;;;;;13.76;100.00;98875.58;1827522;77;21052;-57
2022/04/13 00:04:03;;;;;;;1.00;0.40;;;;;;;13.09;100.00;98862.33;1825666;77;20946;-57
2022/04/13 00:06:30;;;;;;;1.42;0.50;;;;;;;12.90;100.00;98862.50;1827155;77;21161;-60
2022/04/13 00:08:58;;;;;;;1.52;0.55;;;;;;;12.87;100.00;98852.48;1826537;77;20991;-58
2022/04/13 00:11:25;;;;;;;1.15;0.47;;;;;;;12.52;100.00;98851.79;1826245;77;22375;-58
2022/04/13 00:13:52;;;;;;;0.98;0.50;;;;;;;12.58;100.00;98850.87;1826388;77;21594;-61
2022/04/13 00:16:20;;;;;;;1.80;0.60;;;;;;;12.66;100.00;98849.21;1825950;77;20946;-59
2022/04/13 00:18:48;;;;;;;1.12;0.50;;;;;;;12.62;100.00;98848.09;1824228;77;21050;-57
2022/04/13 00:21:14;;;;;;;1.35;0.57;;;;;;;12.63;100.00;98850.45;1818103;77;20994;-56
2022/04/13 00:23:41;;;;;;;1.20;0.47;;;;;;;12.73;100.00;98840.73;1827534;77;21253;-57
2022/04/13 00:26:09;;;;;;;1.15;0.45;;;;;;;12.61;100.00;98828.17;1825374;77;20951;-57
2022/04/13 00:28:36;;;;;;;1.17;0.45;;;;;;;12.69;100.00;98828.33;1827590;77;20938;-59
2022/04/13 00:31:03;;;;;;;1.32;0.40;;;;;;;13.43;100.00;98825.80;1826388;77;20864;-59
2022/04/13 00:33:30;;;;;;;2.10;0.53;;;;;;;13.46;100.00;98829.25;1827109;77;21414;-56
2022/04/13 00:35:56;;;;;;;0.70;0.33;;;;;;;12.77;100.00;98824.86;1826295;77;21124;-63
2022/04/13 00:38:24;;;;;;;0.65;0.40;;;;;;;12.48;100.00;98827.14;1826726;77;21002;-56
2022/04/13 00:40:51;;;;;;;1.37;0.40;;;;;;;12.51;100.00;98833.22;1827675;77;20960;-57
2022/04/13 00:43:19;;;;;;;1.00;0.40;;;;;;;12.38;100.00;98838.16;1826466;77;20892;-57
2022/04/13 00:45:47;;;;;;;1.10;0.42;;;;;;;12.45;100.00;98832.30;1826777;77;21013;-58
2022/04/13 00:48:39;;;;;;;1.07;0.40;;;;;;;12.34;100.00;98832.59;1826585;77;21445;-57
2022/04/13 00:51:06;;;;;;;1.20;0.42;;;;;;;12.46;100.00;98839.11;1826176;77;20954;-58
2022/04/13 00:53:35;;;;;;;1.17;0.55;;;;;;;12.65;100.00;98834.53;1827100;77;21010;-58
2022/04/13 00:56:03;;;;;;;2.90;0.95;;;;;;;12.71;100.00;98829.70;1826165;77;20932;-57
2022/04/13 00:58:32;;;;;;;0.60;0.30;;;;;;;12.59;100.00;98828.94;1827100;77;20991;-58
2022/04/13 01:01:04;;;;;;;0.68;0.40;;;;;;;12.63;100.00;98824.83;1814853;77;20986;-59
2022/04/13 01:03:33;;;;;;;1.80;0.50;;;;;;;12.62;100.00;98835.02;1825803;77;20860;-56
2022/04/13 01:06:01;;;;;;;1.00;0.50;;;;;;;12.75;100.00;98833.95;1759628;79;20999;-56
2022/04/13 01:08:28;;;;;;;1.95;0.57;;;;;;;12.78;100.00;98837.41;1811068;79;21540;-56
2022/04/13 01:10:57;;;;;;;0.80;0.30;;;;;;;12.81;100.00;98841.67;1810541;78;21490;-63
2022/04/13 01:13:24;;;;;;;0.72;0.30;;;;;;;12.84;100.00;98842.52;1812120;77;21137;-56
2022/04/13 01:15:50;;;;;;;0.60;0.23;;;;;;;12.85;100.00;98838.88;1812681;77;20918;-59
2022/04/13 01:18:18;;;;;;;0.88;0.33;;;;;;;12.98;100.00;98838.31;1812399;77;21013;-56
2022/04/13 01:20:56;;;;;;;0.68;0.50;;;;;;;12.97;100.00;98836.73;1813893;77;20959;-57
2022/04/13 01:23:25;;;;;;;1.80;0.30;;;;;;;12.99;100.00;98825.50;1810354;79;21414;-56
2022/04/13 01:25:54;;;;;;;1.00;0.40;;;;;;;12.40;100.00;98821.23;1810687;79;21088;-56
2022/04/13 01:28:23;;;;;;;1.02;0.50;;;;;;;13.46;100.00;98816.17;1812172;77;20956;-56
2022/04/13 01:30:49;;;;;;;0.57;0.23;;;;;;;13.51;100.00;98819.65;1811103;79;20905;-63
2022/04/13 01:33:18;;;;;;;1.50;0.40;;;;;;;13.44;100.00;98818.21;1811472;77;20889;-56
2022/04/13 01:35:44;;;;;;;0.68;0.40;;;;;;;13.56;100.00;98809.77;1812392;77;21998;-56
2022/04/13 01:38:12;;;;;;;0.55;0.28;;;;;;;13.41;100.00;98805.11;1810836;79;21143;-57
2022/04/13 01:40:39;;;;;;;1.25;0.30;;;;;;;13.47;100.00;98808.06;1812148;77;21038;-57
2022/04/13 01:43:07;;;;;;;1.00;0.40;;;;;;;13.01;100.00;98798.61;1812208;77;20960;-63
2022/04/13 01:45:34;;;;;;;0.70;0.30;;;;;;;13.27;100.00;98803.30;1810341;79;20888;-63
2022/04/13 01:48:01;;;;;;;0.80;0.30;;;;;;;13.53;100.00;98799.28;1810752;77;21097;-57
2022/04/13 01:50:28;;;;;;;0.95;0.40;;;;;;;13.64;100.00;98792.38;1812511;77;21197;-57
2022/04/13 01:52:55;;;;;;;1.10;0.30;;;;;;;13.80;100.00;98785.54;1810330;79;20980;-56
2022/04/13 01:55:21;;;;;;;1.00;0.40;;;;;;;13.96;100.00;98777.38;1811980;77;21055;-62
2022/04/13 01:57:48;;;;;;;0.82;0.47;;;;;;;13.99;100.00;98772.97;1813742;77;20947;-55
2022/04/13 02:00:17;;;;;;;0.95;0.40;;;;;;;14.13;100.00;98770.28;1810932;79;21588;-56
2022/04/13 02:02:46;;;;;;;1.12;0.50;;;;;;;13.99;100.00;98767.73;1811066;79;21201;-57
2022/04/13 02:05:13;;;;;;;1.62;0.57;;;;;;;13.96;100.00;98765.59;1800197;78;20976;-61
2022/04/13 02:07:40;;;;;;;2.25;0.75;;;;;;;13.93;100.00;98756.89;1792971;79;20980;-56
2022/04/13 02:10:09;;;;;;;1.70;0.70;;;;;;;14.15;100.00;98756.41;1791907;79;20948;-56
2022/04/13 02:12:37;;;;;;;1.10;0.50;;;;;;;14.19;100.00;98750.16;1793420;79;20993;-57
2022/04/13 02:15:05;;;;;;;0.82;0.50;;;;;;;13.82;100.00;98750.20;1793240;79;21248;-56
2022/04/13 02:17:33;;;;;;;1.05;0.50;;;;;;;13.96;100.00;98751.18;1793225;79;20865;-59
2022/04/13 02:20:01;;;;;;;2.50;0.65;;;;;;;13.80;100.00;98754.90;1792001;79;21486;-58
2022/04/13 02:22:28;;;;;;;1.50;0.60;;;;;;;13.83;100.00;98750.50;1790910;79;21786;-56
2022/04/13 02:25:03;;;;;;;1.10;0.60;;;;;;;13.78;100.00;98753.55;1794009;79;20897;-56
2022/04/13 02:27:34;;;;;;;1.10;0.50;;;;;;;13.85;100.00;98743.17;1795930;79;21101;-59
2022/04/13 02:30:03;;;;;;;1.95;0.70;;;;;;;13.83;100.00;98744.47;1785924;79;20979;-56
2022/04/13 02:32:30;;;;;;;1.05;0.60;;;;;;;13.65;100.00;98743.42;1796834;79;21410;-56
2022/04/13 02:34:56;;;;;;;1.45;0.75;;;;;;;13.57;100.00;98738.07;1795151;79;20992;-56
2022/04/13 02:37:23;;;;;;;1.90;0.70;;;;;;;13.85;100.00;98731.91;1784702;79;21579;-60
2022/04/13 02:39:50;;;;;;;1.37;0.70;;;;;;;13.94;100.00;98725.73;1746385;82;21180;-56
2022/04/13 02:42:17;;;;;;;1.90;0.80;;;;;;;13.99;100.00;98723.20;1755262;81;21414;-56
2022/04/13 02:44:45;;;;;;;1.75;1.12;;;;;;;13.93;100.00;98722.84;1754994;81;21098;-55
2022/04/13 02:47:13;;;;;;;1.72;1.00;;;;;;;13.89;100.00;98721.22;1755290;81;20940;-56
2022/04/13 02:49:40;;;;;;;2.45;1.37;;;;;;;13.96;100.00;98709.27;1755715;81;21019;-56
2022/04/13 02:52:08;;;;;;;1.85;1.00;;;;;;;14.17;100.00;98707.19;1754959;81;21134;-57
2022/04/13 02:54:34;;;;;;;1.98;1.20;;;;;;;14.26;100.00;98712.78;1755123;81;22026;-57
2022/04/13 02:57:03;;;;;;;2.37;1.50;;;;;;;14.23;100.00;98709.33;1755300;81;20937;-56
2022/04/13 02:59:30;;;;;;;2.90;1.82;;;;;;;14.27;100.00;98705.97;1755343;81;20952;-56
2022/04/13 03:01:56;;;;;;;2.60;1.57;;;;;;;14.41;100.00;98708.23;1759995;78;21483;-60
2022/04/13 03:04:23;;;;;;;2.20;1.65;;;;;;;14.50;100.00;98704.16;1746795;82;21575;-56
2022/04/13 03:06:50;;;;;;;2.42;1.45;;;;;;;14.81;100.00;98702.12;1747502;82;21654;-56
2022/04/13 03:09:17;;;;;;;3.10;1.90;;;;;;;14.77;100.00;98697.59;1747241;82;21330;-56
2022/04/13 03:11:45;;;;;;;2.60;1.77;;;;;;;14.86;100.00;98688.78;1747208;82;20900;-55
2022/04/13 03:14:12;;;;;;;5.30;2.15;;;;;;;14.80;100.00;98692.64;1747366;82;20975;-62
2022/04/13 03:16:40;;;;;;;2.92;1.42;;;;;;;14.63;100.00;98690.66;1746797;82;21477;-55
2022/04/13 03:19:06;;;;;;;2.95;2.00;;;;;;;14.65;100.00;98688.57;1747183;82;20994;-55
2022/04/13 03:21:34;;;;;;;2.47;1.90;;;;;;;14.87;100.00;98689.83;1747216;81;20952;-56
2022/04/13 03:24:02;;;;;;;2.55;1.80;;;;;;;14.97;100.00;98691.77;1747307;82;21042;-56
2022/04/13 03:26:29;;;;;;;2.87;1.98;;;;;;;15.09;100.00;98688.45;1747292;82;20923;-56
2022/04/13 03:28:56;;;;;;;2.87;2.12;;;;;;;15.03;100.00;98679.72;1813854;79;21212;-55
2022/04/13 03:31:23;;;;;;;2.62;1.60;;;;;;;15.15;100.00;98674.30;1763317;81;21037;-55
2022/04/13 03:33:51;;;;;;;4.33;1.92;;;;;;;15.13;100.00;98681.65;1763781;80;20942;-55
2022/04/13 03:36:18;;;;;;;2.80;1.90;;;;;;;15.05;100.00;98686.84;1763609;80;20938;-55
2022/04/13 03:38:45;;;;;;;3.00;2.17;;;;;;;15.05;100.00;98693.92;1762819;81;21031;-55
2022/04/13 03:41:11;;;;;;;3.08;1.95;;;;;;;15.21;100.00;98687.74;1763577;81;21093;-54
2022/04/13 03:43:38;;;;;;;3.10;1.82;;;;;;;15.20;100.00;98691.94;1763106;80;21032;-55
2022/04/13 03:46:04;;;;;;;2.12;1.60;;;;;;;15.36;100.00;98691.00;1763238;81;21575;-56
2022/04/13 03:48:31;;;;;;;2.10;1.50;;;;;;;15.28;100.00;98692.26;1763114;81;20998;-56
2022/04/13 03:50:59;;;;;;;2.85;1.60;;;;;;;15.37;100.00;98689.16;1764977;80;21493;-55
2022/04/13 03:53:27;;;;;;;3.47;1.72;;;;;;;15.48;100.00;98684.25;1765808;80;21547;-56
2022/04/13 03:55:54;;;;;;;2.62;1.65;;;;;;;15.37;100.00;98683.38;1790005;79;21574;-55
2022/04/13 03:58:22;;;;;;;3.42;1.75;;;;;;;15.58;100.00;98677.75;1763206;81;21504;-55
2022/04/13 04:00:49;;;;;;;4.65;2.30;;;;;;;15.60;100.00;98669.08;1761232;81;20997;-57
2022/04/13 04:03:17;;;;;;;5.50;2.10;;;;;;;15.60;100.00;98674.86;1750007;81;20958;-56
2022/04/13 04:05:45;;;;;;;3.05;1.87;;;;;;;15.60;100.00;98669.61;1749677;81;20825;-58
2022/04/13 04:08:13;;;;;;;3.42;1.95;;;;;;;15.68;100.00;98677.03;1750239;81;20994;-55
2022/04/13 04:10:41;;;;;;;2.75;1.70;;;;;;;15.61;100.00;98670.69;1748720;81;20892;-64
2022/04/13 04:13:10;;;;;;;4.35;2.27;;;;;;;15.78;100.00;98671.84;1749941;81;21262;-56
2022/04/13 04:15:36;;;;;;;2.70;1.90;;;;;;;15.67;100.00;98666.27;1749809;81;21537;-55
2022/04/13 04:18:06;;;;;;;3.42;2.00;;;;;;;15.73;100.00;98663.41;1749427;81;21442;-55
2022/04/13 04:20:32;;;;;;;4.80;2.30;;;;;;;15.91;100.00;98664.00;1749134;81;21057;-61
2022/04/13 04:23:00;;;;;;;3.30;2.08;;;;;;;15.95;100.00;98665.88;1728479;82;21065;-56
2022/04/13 04:25:28;;;;;;;4.43;2.13;;;;;;;16.21;100.00;98664.64;1737581;82;21524;-56
2022/04/13 04:27:54;;;;;;;3.67;2.43;;;;;;;15.87;100.00;98664.25;1751263;80;21920;-55
2022/04/13 04:30:22;;;;;;;4.70;2.52;;;;;;;15.86;100.00;98661.36;1744409;81;21528;-55
2022/04/13 04:32:50;;;;;;;5.50;2.83;;;;;;;15.93;100.00;98655.35;1740884;81;20971;-55
2022/04/13 04:35:17;;;;;;;5.43;3.03;;;;;;;16.00;100.00;98660.64;1742387;81;21963;-55
2022/04/13 04:37:44;;;;;;;6.13;3.50;;;;;;;15.94;100.00;98660.87;1743132;81;21707;-55
2022/04/13 04:40:11;;;;;;;7.43;4.00;;;;;;;16.09;100.00;98661.45;1744244;81;21237;-57
2022/04/13 04:42:48;;;;;;;8.93;4.60;;;;;;;15.90;100.00;98665.84;1741561;81;21222;-60
2022/04/13 04:45:18;;;;;;;9.53;5.93;;;;;;;15.87;100.00;98665.03;1742286;81;22205;-57
2022/04/13 04:47:47;;;;;;;8.23;5.60;;;;;;;16.01;100.00;98668.00;1741589;81;21231;-56
2022/04/13 04:50:17;;;;;;;8.70;6.10;;;;;;;16.07;100.00;98666.98;1744095;81;21007;-56
2022/04/13 04:52:45;;;;;;;9.63;6.13;;;;;;;16.01;100.00;98668.00;1744702;81;21817;-57
2022/04/13 04:55:13;;;;;;;8.27;5.73;;;;;;;16.14;100.00;98667.53;1742281;81;22214;-58
2022/04/13 04:57:40;;;;;;;9.17;5.63;;;;;;;16.21;100.00;98671.21;1743073;81;21117;-56
2022/04/13 05:00:10;;;;;;;9.97;6.70;;;;;;;16.14;100.00;98672.79;1742125;81;21246;-55
2022/04/13 05:02:37;;;;;;;8.95;6.58;;;;;;;16.09;100.00;98669.34;1744938;81;21790;-59
2022/04/13 05:05:07;;;;;;;9.37;6.90;;;;;;;16.15;100.00;98664.38;1742119;81;21003;-57
2022/04/13 05:07:33;;;;;;;9.87;6.13;;;;;;;16.22;100.00;98670.97;1743075;81;21248;-56
2022/04/13 05:10:01;;;;;;;9.40;5.90;;;;;;;16.49;100.00;98671.30;1732172;81;21288;-55
2022/04/13 05:12:29;;;;;;;7.40;4.90;;;;;;;16.59;100.00;98671.30;1744516;81;21173;-56
2022/04/13 05:14:57;;;;;;;7.33;5.20;;;;;;;16.58;100.00;98673.67;1740025;81;21705;-56
2022/04/13 05:17:25;;;;;;;8.37;5.90;;;;;;;16.60;100.00;98661.06;1742252;81;22337;-55
2022/04/13 05:19:53;;;;;;;8.07;4.83;;;;;;;16.75;100.00;98677.42;1741032;81;21757;-57
2022/04/13 05:22:20;;;;;;;11.07;6.43;;;;;;;16.54;100.00;98669.98;1740575;82;21126;-57
2022/04/13 05:24:49;;;;;;;10.83;7.30;;;;;;;16.87;100.00;98668.74;1745130;81;21184;-64
2022/04/13 05:27:16;;;;;;;10.77;6.60;;;;;;;16.83;100.00;98670.84;1743767;81;21140;-57
2022/04/13 05:29:43;;;;;;;10.60;6.33;;;;;;;16.83;100.00;98668.22;1745269;81;21357;-57
2022/04/13 05:32:13;;;;;;;10.70;6.97;;;;;;;16.80;100.00;98674.00;1744237;81;21184;-57
2022/04/13 05:34:40;;;;;;;14.53;8.47;;;;;;;16.79;100.00;98667.95;1741282;81;21235;-58
2022/04/13 05:37:07;;;;;;;8.97;6.27;;;;;;;16.79;100.00;98665.32;1742011;81;21244;-58
2022/04/13 05:39:37;;;;;;;8.37;5.90;;;;;;;16.90;100.00;98662.17;1743188;81;21302;-60
2022/04/13 05:42:03;;;;;;;9.67;6.53;;;;;;;16.91;100.00;98661.11;1744314;81;21257;-55
2022/04/13 05:44:30;;;;;;;11.23;6.27;;;;;;;17.06;100.00;98661.64;1742946;81;22259;-57
2022/04/13 05:46:56;;;;;;;11.10;7.50;;;;;;;17.17;100.00;98652.68;1744124;81;21261;-62
2022/04/13 05:49:23;;;;;;;9.43;6.63;;;;;;;17.15;100.00;98645.03;1741636;81;21162;-58
2022/04/13 05:51:51;;;;;;;10.57;7.10;;;;;;;17.28;100.00;98644.25;1745006;81;21517;-58
2022/04/13 05:54:18;;;;;;;11.90;6.73;;;;;;;17.45;100.00;98646.03;1743964;81;21581;-58
2022/04/13 05:56:44;;;;;;;9.40;6.30;;;;;;;17.70;100.00;98636.75;1743329;81;21247;-58
2022/04/13 05:59:14;;;;;;;10.03;6.90;;;;;;;17.74;100.00;98645.69;1743602;81;21172;-57
2022/04/13 06:01:42;;;;;;;10.67;7.13;;;;;;;17.89;100.00;98646.20;1745852;81;21285;-56
2022/04/13 06:04:09;;;;;;;9.30;6.97;;;;;;;18.14;100.00;98640.00;1751932;81;21294;-56
2022/04/13 06:06:36;;;;;;;8.80;7.27;;;;;;;18.27;100.00;98629.40;1752571;81;21238;-56
2022/04/13 06:09:03;;;;;;;10.43;6.93;;;;;;;18.39;100.00;98623.78;1750853;81;21211;-58
2022/04/13 06:11:30;;;;;;;12.70;8.60;;;;;;;18.42;100.00;98621.92;1751595;81;21783;-55
2022/04/13 06:13:56;;;;;;;9.83;7.97;;;;;;;18.52;100.00;98619.19;1759526;80;21449;-56
2022/04/13 06:16:23;;;;;;;10.40;7.27;;;;;;;18.46;100.00;98613.72;1751026;81;21332;-55
2022/04/13 06:18:50;;;;;;;12.07;8.73;;;;;;;18.80;100.00;98626.95;1750782;81;21374;-55
2022/04/13 06:21:17;;;;;;;10.73;7.60;;;;;;;18.80;100.00;98626.95;1750743;81;21551;-60
2022/04/13 06:23:45;;;;;;;11.10;7.53;;;;;;;18.85;100.00;98622.16;1752157;81;21478;-55
2022/04/13 06:26:13;;;;;;;10.90;8.23;;;;;;;18.92;100.00;98623.41;1751167;81;21213;-56
2022/04/13 06:28:41;;;;;;;13.10;8.10;;;;;;;19.10;100.00;98633.82;1751893;81;21361;-55
2022/04/13 06:31:08;;;;;;;10.07;7.90;;;;;;;19.13;100.00;98639.88;1752131;81;21685;-56
2022/04/13 06:33:35;;;;;;;11.53;8.30;;;;;;;19.13;100.00;98639.88;1751969;81;22043;-56
2022/04/13 06:36:05;;;;;;;10.90;8.07;;;;;;;19.37;100.00;98633.83;1751358;81;21731;-57
2022/04/13 06:38:33;;;;;;;11.80;8.43;;;;;;;19.38;100.00;98629.57;1751884;81;21709;-56
2022/04/13 06:40:59;;;;;;;13.20;8.93;;;;;;;19.46;100.00;98621.56;1748091;80;21726;-55
2022/04/13 06:43:26;;;;;;;9.00;7.57;;;;;;;19.57;100.00;98623.02;1749625;81;22223;-57
2022/04/13 06:45:54;;;;;;;12.10;8.77;;;;;;;19.87;100.00;98643.59;1759827;80;21642;-54
2022/04/13 06:48:21;;;;;;;11.60;8.60;;;;;;;19.99;100.00;98643.97;1751922;81;21606;-55
2022/04/13 06:50:49;;;;;;;10.50;8.03;;;;;;;20.03;100.00;98647.62;1752727;81;22886;-55
2022/04/13 06:53:17;;;;;;;10.93;9.13;;;;;;;20.03;100.00;98647.62;1751188;81;21683;-56
2022/04/13 06:55:45;;;;;;;13.93;8.27;;;;;;;20.22;100.00;98644.98;1751799;81;21761;-55
2022/04/13 06:58:12;;;;;;;10.23;8.00;;;;;;;20.22;100.00;98652.14;1751995;81;21955;-55
2022/04/13 07:00:39;;;;;;;10.90;8.23;;;;;;;20.24;100.00;98660.05;1751663;81;21717;-55
2022/04/13 07:03:05;;;;;;;13.30;9.33;;;;;;;20.07;100.00;98665.81;1751475;81;21689;-55
2022/04/13 07:05:34;;;;;;;9.27;7.97;;;;;;;20.02;100.00;98657.95;1750647;81;21680;-61
2022/04/13 07:08:02;;;;;;;9.90;8.60;;;;;;;20.08;100.00;98662.12;1751943;81;22109;-55
2022/04/13 07:10:34;;;;;;;13.60;8.57;;;;;;;19.81;100.00;98658.75;1750701;81;21664;-57
2022/04/13 07:13:01;;;;;;;12.00;8.30;;;;;;;19.62;100.00;98663.98;1749051;81;22435;-55
2022/04/13 07:15:30;;;;;;;13.77;9.40;;;;;;;19.63;100.00;98674.80;1751454;81;20895;-56
2022/04/13 07:17:57;;;;;;;10.53;7.53;;;;;;;19.56;100.00;98673.53;1759413;80;22475;-57
2022/04/13 07:20:24;;;;;;;14.50;8.97;;;;;;;19.54;100.00;98680.94;1751879;81;21742;-56
2022/04/13 07:22:53;;;;;;;12.20;9.07;;;;;;;19.76;100.00;98681.27;1751073;81;21667;-55
2022/04/13 07:25:20;;;;;;;11.27;7.93;;;;;;;19.66;100.00;98684.83;1751371;81;21630;-62
2022/04/13 07:27:48;;;;;;;10.37;8.10;;;;;;;19.74;100.00;98668.88;1752426;81;22551;-56
2022/04/13 07:30:15;;;;;;;10.67;8.60;;;;;;;19.86;100.00;98679.84;1751655;81;22166;-57
2022/04/13 07:32:45;;;;;;;11.07;8.03;;;;;;;19.67;100.00;98686.39;1751818;81;21617;-55
2022/04/13 07:35:13;;;;;;;13.00;8.93;;;;;;;19.81;100.00;98682.55;1750943;81;21627;-55
2022/04/13 07:37:40;;;;;;;14.70;8.10;;;;;;;19.95;100.00;98687.92;1750232;81;21986;-55
2022/04/13 07:40:11;;;;;;;11.37;8.37;;;;;;;19.85;100.00;98681.42;1751143;81;21855;-55
2022/04/13 07:42:37;;;;;;;11.67;8.03;;;;;;;20.09;100.00;98671.62;1752972;81;21629;-55
2022/04/13 07:45:06;;;;;;;11.17;7.50;;;;;;;20.36;100.00;98663.59;1751815;81;21733;-56
2022/04/13 07:47:32;;;;;;;11.13;7.53;;;;;;;20.48;100.00;98656.55;1752292;81;21732;-60
2022/04/13 07:50:00;;;;;;;8.87;6.77;;;;;;;20.60;100.00;98659.02;1748560;81;21670;-56
2022/04/13 07:52:26;;;;;;;8.57;7.00;;;;;;;20.66;100.00;98646.52;1751900;81;21105;-56
2022/04/13 07:54:53;;;;;;;12.23;7.43;;;;;;;20.87;100.00;98645.64;1760739;80;21033;-57
2022/04/13 07:57:19;;;;;;;9.83;6.47;;;;;;;20.95;100.00;98652.95;1751030;81;21760;-62
2022/04/13 07:59:46;;;;;;;9.17;6.80;;;;;;;20.96;100.00;98658.48;1752176;81;21737;-55
2022/04/13 08:02:22;;;;;;;9.07;7.03;;;;;;;20.88;100.00;98652.53;1751755;81;21079;-54
2022/04/13 08:04:48;;;;;;;11.00;7.10;;;;;;;20.87;100.00;98652.27;1752901;81;21037;-56
2022/04/13 08:07:15;;;;;;;11.43;6.97;;;;;;;21.08;100.00;98652.18;1750939;81;21055;-56
2022/04/13 08:09:43;;;;;;;10.50;6.57;;;;;;;20.90;100.00;98655.12;1751992;81;21008;-61
2022/04/13 08:12:11;;;;;;;8.70;6.90;;;;;;;20.92;100.00;98659.36;1751910;81;21517;-56
2022/04/13 08:14:38;;;;;;;10.33;7.27;;;;;;;20.89;100.00;98662.04;1751999;81;21678;-57
2022/04/13 08:17:06;;;;;;;9.00;7.13;;;;;;;20.96;100.00;98659.03;1750764;81;21157;-55
2022/04/13 08:19:33;;;;;;;7.97;7.03;;;;;;;20.97;100.00;98660.05;1752266;81;21224;-56
2022/04/13 08:22:01;;;;;;;9.27;6.83;;;;;;;21.22;100.00;98658.06;1749170;81;21045;-57
2022/04/13 08:24:29;;;;;;;8.87;6.77;;;;;;;21.26;100.00;98665.13;1751309;81;21575;-57
2022/04/13 08:26:59;;;;;;;7.90;6.00;;;;;;;21.38;100.00;98667.34;1759875;80;20955;-57
2022/04/13 08:29:25;;;;;;;8.40;5.97;;;;;;;21.45;100.00;98670.39;1750595;82;20908;-57
2022/04/13 08:31:52;;;;;;;8.20;6.67;;;;;;;21.51;100.00;98663.12;1749237;81;20959;-57
2022/04/13 08:34:19;;;;;;;8.30;6.50;;;;;;;21.44;100.00;98680.75;1751693;81;21025;-57
2022/04/13 08:36:46;;;;;;;7.00;6.07;;;;;;;21.39;100.00;98676.85;1752504;81;22426;-56
2022/04/13 08:39:15;;;;;;;9.00;6.43;;;;;;;21.23;100.00;98682.94;1751762;81;21017;-56
2022/04/13 08:41:51;;;;;;;7.57;5.90;;;;;;;21.08;100.00;98673.92;1751756;81;20983;-59
2022/04/13 08:44:36;;;;;;;9.30;6.47;;;;;;;21.03;100.00;98676.12;1751839;81;21806;-56
2022/04/13 08:47:11;;;;;;;8.53;6.47;;;;;;;21.00;100.00;98684.64;1741779;81;21067;-57
2022/04/13 08:49:40;;;;;;;8.87;5.87;;;;;;;21.08;100.00;98683.97;1750531;81;21130;-56
2022/04/13 08:52:08;;;;;;;10.13;7.17;;;;;;;20.95;100.00;98695.84;1751900;81;21533;-56
2022/04/13 08:54:51;;;;;;;7.80;5.93;;;;;;;20.76;100.00;98697.19;1752637;81;21529;-55
2022/04/13 08:57:17;;;;;;;8.88;6.08;;;;;;;20.92;100.00;98690.61;1749242;82;21546;-56
2022/04/13 09:00:05;;;;;;;10.07;7.17;;;;;;;20.74;100.00;98699.35;1752590;81;22021;-57
2022/04/13 09:03:06;;;;;;;9.50;6.40;;;;;;;20.91;100.00;98698.31;1752463;81;20931;-56
2022/04/13 09:05:33;;;;;;;10.03;6.40;;;;;;;20.91;100.00;98691.69;1754933;81;21014;-56
2022/04/13 09:08:21;;;;;;;8.87;6.60;;;;;;;20.86;100.00;98703.67;1715543;82;20974;-56
2022/04/13 09:10:52;;;;;;;9.20;6.70;;;;;;;20.80;100.00;98692.92;1744393;82;20994;-59
2022/04/13 09:13:20;;;;;;;10.53;5.90;;;;;;;20.54;100.00;98689.86;1745119;82;21114;-55
2022/04/13 09:15:48;;;;;;;9.13;6.23;;;;;;;20.26;100.00;98696.80;1745189;82;21233;-56
2022/04/13 09:18:15;;;;;;;9.77;6.67;;;;;;;20.52;100.00;98695.41;1744426;82;21051;-56
2022/04/13 09:20:42;;;;;;;9.63;6.73;;;;;;;20.67;100.00;98687.02;1744341;82;21642;-58
2022/04/13 09:23:08;;;;;;;12.53;6.90;;;;;;;20.72;100.00;98680.30;1744741;82;21073;-57
2022/04/13 09:25:36;;;;;;;9.20;6.63;;;;;;;20.72;100.00;98681.12;1745122;82;21313;-56
2022/04/13 09:28:04;;;;;;;8.77;7.50;;;;;;;20.79;100.00;98689.45;1744884;82;21126;-56
2022/04/13 09:30:33;;;;;;;11.43;7.40;;;;;;;21.12;100.00;98682.86;1744553;82;21514;-57
2022/04/13 09:33:02;;;;;;;8.87;7.13;;;;;;;21.05;100.00;98675.81;1747935;81;21038;-56
2022/04/13 09:35:32;;;;;;;11.33;7.90;;;;;;;21.26;100.00;98674.95;1752045;81;21026;-56
2022/04/13 09:38:07;;;;;;;9.57;7.53;;;;;;;21.57;100.00;98679.19;1739096;82;21051;-57
2022/04/13 09:40:41;;;;;;;11.00;7.40;;;;;;;21.57;100.00;98677.86;1751215;81;21200;-59
2022/04/13 09:43:13;;;;;;;12.03;7.60;;;;;;;21.80;100.00;98673.45;1751780;81;21054;-56
2022/04/13 09:45:44;;;;;;;8.93;7.53;;;;;;;21.71;100.00;98666.73;1751830;81;20948;-57
2022/04/13 09:48:12;;;;;;;;;;;;;;;21.71;100.00;98667.27;1753114;81;21065;-59
2022/04/13 09:50:40;;;;;;;11.63;7.20;;;;;;;21.62;100.00;98667.93;1751886;81;20447;-57
2022/04/13 09:53:08;;;;;;;12.73;7.83;;;;;;;21.68;100.00;98671.83;1751175;81;21319;-56
2022/04/13 09:55:47;;;;;;;13.20;7.60;;;;;;;21.50;100.00;98672.94;1751462;81;20994;-56
2022/04/13 09:58:15;;;;;;;11.77;7.57;;;;;;;21.63;100.00;98670.06;1751830;81;20970;-56
2022/04/13 10:00:45;;;;;;;10.03;8.10;;;;;;;21.49;100.00;98673.25;1751695;81;21025;-57
2022/04/13 10:03:16;;;;;;;10.73;7.30;;;;;;;21.62;100.00;98685.16;1751820;81;21059;-56
2022/04/13 10:05:47;;;;;;;9.50;6.97;;;;;;;21.45;100.00;98679.67;1752038;81;21258;-65
2022/04/13 10:08:14;;;;;;;;;;;;;;;21.31;100.00;98690.21;1753609;81;21473;-56
2022/04/13 10:10:45;;;;;;;10.57;6.57;;;;;;;21.28;100.00;98694.77;1751679;81;20126;-55
2022/04/13 10:13:15;;;;;;;10.17;6.63;;;;;;;21.27;100.00;98701.69;1751815;81;21484;-55
2022/04/13 10:15:48;;;;;;;7.92;5.95;;;;;;;21.38;100.00;98698.59;1749192;81;21046;-63
2022/04/13 10:18:15;;;;;;;8.47;5.90;;;;;;;21.40;100.00;98700.16;1748492;81;21289;-54
2022/04/13 10:20:46;;;;;;;8.63;6.03;;;;;;;21.06;100.00;98711.31;1750613;81;21473;-55
2022/04/13 10:23:14;;;;;;;9.03;6.20;;;;;;;20.97;100.00;98710.92;1751719;81;21003;-56
2022/04/13 10:25:44;;;;;;;10.93;6.73;;;;;;;20.77;100.00;98722.08;1751902;81;20966;-58
2022/04/13 10:28:15;;;;;;;10.85;6.55;;;;;;;20.86;100.00;98719.02;1751380;81;21449;-56
2022/04/13 10:30:42;;;;;;;10.07;7.70;;;;;;;20.77;100.00;98727.91;1750692;81;21880;-57
2022/04/13 10:33:13;;;;;;;8.03;6.30;;;;;;;20.65;100.00;98729.13;1751002;81;20931;-56
2022/04/13 10:35:45;;;;;;;8.88;7.17;;;;;;;20.65;100.00;98721.73;1752647;81;21227;-62
2022/04/13 10:38:13;;;;;;;9.50;7.67;;;;;;;20.67;100.00;98741.29;1751926;81;21471;-55
2022/04/13 10:40:41;;;;;;;8.77;7.67;;;;;;;20.61;100.00;98734.75;1752293;81;21062;-59
2022/04/13 10:43:13;;;;;;;9.80;7.03;;;;;;;20.62;100.00;98732.89;1751920;81;21290;-57
2022/04/13 10:45:43;;;;;;;12.43;7.53;;;;;;;20.15;100.00;98735.31;1752116;81;20919;-56
2022/04/13 10:48:10;;;;;;;14.40;9.17;;;;;;;20.14;100.00;98732.39;1751478;81;22094;-55
2022/04/13 10:50:55;;;;;;;8.37;6.87;;;;;;;20.40;100.00;98740.02;1751903;81;20872;-56
2022/04/13 10:53:28;;;;;;;10.67;8.30;;;;;;;20.20;100.00;98741.61;1751345;81;21018;-62
2022/04/13 10:56:01;;;;;;;11.50;8.17;;;;;;;20.35;100.00;98755.98;1752467;80;21795;-56
2022/04/13 10:59:06;;;;;;;9.93;8.20;;;;;;;20.51;100.00;98742.82;1722506;81;21724;-58
2022/04/13 11:01:48;;;;;;;11.73;7.60;;;;;;;20.53;100.00;98757.08;1755736;81;21003;-55
2022/04/13 11:04:17;;;;;;;9.37;7.17;;;;;;;20.62;100.00;98756.72;1718606;82;20970;-55
2022/04/13 11:06:45;;;;;;;10.00;8.40;;;;;;;20.51;100.00;98759.24;1757255;81;21050;-55
2022/04/13 11:09:28;;;;;;;9.80;8.27;;;;;;;20.45;100.00;98758.48;1758076;81;21339;-55
2022/04/13 11:11:56;;;;;;;10.43;7.30;;;;;;;20.45;100.00;98761.13;1748821;81;21501;-63
2022/04/13 11:14:24;;;;;;;11.97;7.57;;;;;;;20.30;100.00;98759.45;1757968;81;21069;-55
2022/04/13 11:17:11;;;;;;;10.60;7.90;;;;;;;20.26;100.00;98764.27;1758420;81;22075;-55
2022/04/13 11:19:41;;;;;;;10.33;8.20;;;;;;;20.28;100.00;98767.44;1757455;81;21001;-61
2022/04/13 11:22:13;;;;;;;10.33;8.03;;;;;;;20.41;100.00;98764.09;1758418;81;21620;-55
2022/04/13 11:24:54;;;;;;;8.87;7.40;;;;;;;20.43;100.00;98767.79;1757964;81;21536;-56
2022/04/13 11:27:22;;;;;;;11.37;7.93;;;;;;;20.40;100.00;98767.81;1757219;81;20971;-57
2022/04/13 11:30:00;;;;;;;12.27;8.30;;;;;;;20.60;100.00;98772.86;1758083;81;21335;-56
2022/04/13 11:32:35;;;;;;;12.63;8.17;;;;;;;20.59;100.00;98767.33;1758440;81;20993;-57